Time;durP1;ratioP1;P1;durP2;ratioP2;P2;SDS_P1;SDS_P2;PMS_P1;PMS_P2;Temp;Humidity;BMP_temperature;BMP_pressure;BME280_temperature;BME280_humidity;BME280_pressure;Samples;Min_cycle;Max_cycle;Signal;HPM_P1;HPM_P2
2024/01/07 00:00:55;;;;;;;5.68;2.95;;;1.60;99.90;;;;;;4993599;28;20547;-64
2024/01/07 00:03:22;;;;;;;4.70;3.03;;;1.60;99.90;;;;;;4987641;28;20125;-64
2024/01/07 00:05:49;;;;;;;4.38;2.80;;;1.60;99.90;;;;;;4993625;28;20046;-64
2024/01/07 00:08:16;;;;;;;5.60;3.47;;;1.60;99.90;;;;;;4993971;28;20065;-64
2024/01/07 00:10:43;;;;;;;9.32;3.42;;;1.50;99.90;;;;;;4985424;28;20466;-64
2024/01/07 00:13:09;;;;;;;7.88;3.22;;;1.40;99.90;;;;;;4991944;28;20415;-64
2024/01/07 00:15:36;;;;;;;11.13;4.82;;;1.50;99.90;;;;;;4990896;28;20050;-64
2024/01/07 00:18:03;;;;;;;19.15;6.65;;;1.50;99.90;;;;;;4987421;28;20046;-64
2024/01/07 00:20:30;;;;;;;22.20;8.52;;;1.50;99.90;;;;;;4979164;28;20054;-64
2024/01/07 00:22:57;;;;;;;20.40;9.05;;;1.50;99.90;;;;;;4984841;28;20129;-65
2024/01/07 00:25:24;;;;;;;16.25;7.13;;;1.60;99.90;;;;;;4987224;28;20118;-64
2024/01/07 00:27:51;;;;;;;14.00;5.82;;;1.60;99.90;;;;;;4976917;28;21213;-64
2024/01/07 00:30:19;;;;;;;9.88;5.05;;;1.60;99.90;;;;;;4984887;28;20057;-64
2024/01/07 00:32:46;;;;;;;8.80;4.93;;;1.60;99.90;;;;;;4968274;28;20042;-64
2024/01/07 00:35:13;;;;;;;7.82;4.50;;;1.50;99.90;;;;;;4977432;28;20518;-64
2024/01/07 00:37:40;;;;;;;7.18;4.47;;;1.60;99.90;;;;;;4987716;28;20046;-64
2024/01/07 00:40:07;;;;;;;6.15;4.00;;;1.50;99.90;;;;;;4973479;28;20057;-64
2024/01/07 00:42:34;;;;;;;7.95;4.35;;;1.60;99.90;;;;;;4991700;28;20042;-64
2024/01/07 00:45:01;;;;;;;8.25;3.92;;;1.60;99.90;;;;;;4993003;28;20112;-64
2024/01/07 00:47:27;;;;;;;13.15;6.30;;;1.60;99.90;;;;;;4975213;28;20085;-64
2024/01/07 00:49:55;;;;;;;19.38;8.60;;;1.60;99.90;;;;;;4974005;28;20051;-65
2024/01/07 00:52:23;;;;;;;21.00;8.00;;;1.60;99.90;;;;;;4970670;28;20129;-65
2024/01/07 00:54:50;;;;;;;36.15;12.73;;;1.60;99.90;;;;;;4975534;28;20042;-64
2024/01/07 00:57:17;;;;;;;22.45;9.70;;;1.60;99.90;;;;;;4992652;28;20069;-64
2024/01/07 00:59:44;;;;;;;11.23;5.65;;;1.60;99.90;;;;;;4974038;28;20381;-64
2024/01/07 01:02:11;;;;;;;11.13;5.32;;;1.50;99.90;;;;;;4992963;28;20411;-64
2024/01/07 01:04:39;;;;;;;11.27;5.85;;;1.50;99.90;;;;;;4975242;28;20038;-64
2024/01/07 01:07:07;;;;;;;10.43;5.60;;;1.50;99.90;;;;;;4974377;28;20139;-64
2024/01/07 01:09:34;;;;;;;10.32;5.10;;;1.50;99.90;;;;;;4974161;28;20038;-64
2024/01/07 01:12:01;;;;;;;8.90;4.85;;;1.50;99.90;;;;;;4990236;28;20483;-64
2024/01/07 01:14:28;;;;;;;10.55;6.25;;;1.50;99.90;;;;;;4974278;28;20133;-64
2024/01/07 01:16:55;;;;;;;9.75;5.78;;;1.40;99.90;;;;;;4974974;28;20042;-64
2024/01/07 01:19:21;;;;;;;9.20;4.53;;;1.40;99.90;;;;;;4972930;28;20499;-64
2024/01/07 01:21:49;;;;;;;13.60;6.75;;;1.50;99.90;;;;;;4973698;28;20038;-64
2024/01/07 01:24:15;;;;;;;14.30;7.03;;;1.50;99.90;;;;;;4988976;28;20043;-65
2024/01/07 01:26:42;;;;;;;14.07;7.10;;;1.50;99.90;;;;;;4973302;28;20109;-64
2024/01/07 01:29:09;;;;;;;15.25;6.40;;;1.50;99.90;;;;;;4992125;28;20061;-64
2024/01/07 01:31:36;;;;;;;12.27;6.38;;;1.50;99.90;;;;;;4972478;28;20047;-64
2024/01/07 01:34:03;;;;;;;10.13;5.50;;;1.50;99.90;;;;;;4974095;28;20058;-64
2024/01/07 01:36:33;;;;;;;10.90;6.55;;;1.50;99.90;;;;;;4973328;28;20038;-64
2024/01/07 01:39:00;;;;;;;11.57;6.30;;;1.50;99.90;;;;;;4973838;28;20479;-64
2024/01/07 01:41:28;;;;;;;11.25;5.85;;;1.50;99.90;;;;;;4992631;28;20514;-64
2024/01/07 01:43:58;;;;;;;12.05;6.10;;;1.50;99.90;;;;;;4992001;28;20030;-64
2024/01/07 01:46:25;;;;;;;11.13;5.95;;;1.50;99.90;;;;;;4978151;28;20053;-64
2024/01/07 01:48:52;;;;;;;;;;;1.50;99.90;;;;;;4986639;28;20046;-64
2024/01/07 01:51:19;;;;;;;8.93;4.85;;;1.50;99.90;;;;;;4973545;28;20382;-64
2024/01/07 01:53:49;;;;;;;10.48;5.43;;;1.50;99.90;;;;;;4952394;28;20054;-64
2024/01/07 01:56:18;;;;;;;9.45;6.07;;;1.50;99.90;;;;;;4974121;28;20050;-64
2024/01/07 01:58:45;;;;;;;11.80;5.93;;;1.50;99.90;;;;;;4970486;28;20503;-64
2024/01/07 02:01:12;;;;;;;10.30;5.38;;;1.50;99.90;;;;;;4972915;28;20055;-64
2024/01/07 02:03:39;;;;;;;9.73;5.20;;;1.50;99.90;;;;;;4990391;28;20049;-64
2024/01/07 02:06:07;;;;;;;8.68;4.97;;;1.60;99.90;;;;;;4973930;28;20050;-64
2024/01/07 02:08:33;;;;;;;10.10;5.05;;;1.60;99.90;;;;;;4972581;28;20526;-64
2024/01/07 02:11:18;;;;;;;8.35;5.03;;;1.60;99.90;;;;;;4973430;28;20125;-64
2024/01/07 02:13:45;;;;;;;10.60;5.57;;;1.60;99.90;;;;;;4971740;28;20042;-64
2024/01/07 02:16:12;;;;;;;9.23;5.47;;;1.50;99.90;;;;;;4972925;28;20066;-65
2024/01/07 02:18:44;;;;;;;11.35;5.53;;;1.50;99.90;;;;;;4973510;28;20077;-64
2024/01/07 02:21:13;;;;;;;8.65;5.03;;;1.60;99.90;;;;;;4975871;28;20046;-64
2024/01/07 02:23:40;;;;;;;13.30;6.70;;;1.60;99.90;;;;;;4981426;28;20034;-64
2024/01/07 02:26:07;;;;;;;12.00;6.07;;;1.60;99.90;;;;;;4971596;28;20057;-64
2024/01/07 02:28:34;;;;;;;12.27;6.40;;;1.50;99.90;;;;;;4990147;28;20058;-64
2024/01/07 02:31:01;;;;;;;11.10;6.22;;;1.50;99.90;;;;;;4987866;28;20049;-65
2024/01/07 02:33:29;;;;;;;10.88;5.65;;;1.50;99.90;;;;;;4980313;28;20102;-65
2024/01/07 02:35:56;;;;;;;13.32;6.20;;;1.50;99.90;;;;;;4951609;28;20491;-64
2024/01/07 02:38:23;;;;;;;11.77;5.97;;;1.60;99.90;;;;;;4973567;28;20038;-64
2024/01/07 02:40:50;;;;;;;9.88;4.90;;;1.50;99.90;;;;;;4989826;28;20492;-64
2024/01/07 02:43:16;;;;;;;8.15;4.45;;;1.50;99.90;;;;;;4973244;28;20470;-64
2024/01/07 02:45:43;;;;;;;9.80;4.78;;;1.50;99.90;;;;;;4988301;28;20034;-65
2024/01/07 02:48:10;;;;;;;9.25;5.28;;;1.50;99.90;;;;;;4990532;28;20051;-65
2024/01/07 02:50:37;;;;;;;9.65;5.10;;;1.50;99.90;;;;;;4990439;28;20042;-65
2024/01/07 02:53:04;;;;;;;6.00;3.47;;;1.50;99.90;;;;;;4966809;28;20622;-65
2024/01/07 02:55:30;;;;;;;7.50;4.07;;;1.50;99.90;;;;;;4974500;28;20049;-65
2024/01/07 02:57:57;;;;;;;8.45;4.55;;;1.50;99.90;;;;;;4996292;28;20724;-65
2024/01/07 03:00:24;;;;;;;8.52;4.80;;;1.50;99.90;;;;;;4994716;28;20054;-65
2024/01/07 03:02:52;;;;;;;8.65;4.28;;;1.60;99.90;;;;;;4993966;28;20093;-65
2024/01/07 03:09:19;;;;;;;13.18;4.78;;;1.50;99.90;;;;;;4991414;28;20033;-65
2024/01/07 03:11:46;;;;;;;10.98;5.05;;;1.50;99.90;;;;;;4975173;28;20558;-65
2024/01/07 03:14:12;;;;;;;6.45;3.50;;;1.50;99.90;;;;;;4993816;28;20050;-65
2024/01/07 03:16:39;;;;;;;8.95;4.30;;;1.50;99.90;;;;;;4981751;28;20320;-66
2024/01/07 03:19:06;;;;;;;8.90;4.82;;;1.50;99.90;;;;;;4994349;28;20539;-65
2024/01/07 03:21:33;;;;;;;8.50;4.95;;;1.40;99.90;;;;;;4992000;28;20507;-65
2024/01/07 03:24:00;;;;;;;9.45;4.95;;;1.40;99.90;;;;;;4972508;28;20042;-65
2024/01/07 03:26:30;;;;;;;11.20;5.28;;;1.40;99.90;;;;;;4993818;28;20113;-65
2024/01/07 03:28:59;;;;;;;8.75;4.60;;;1.40;99.90;;;;;;4992110;28;20048;-65
2024/01/07 03:31:26;;;;;;;6.97;4.32;;;1.40;99.90;;;;;;4991317;28;20046;-65
2024/01/07 03:33:54;;;;;;;8.60;5.00;;;1.40;99.90;;;;;;4973090;28;20056;-65
2024/01/07 03:36:21;;;;;;;8.45;4.50;;;1.50;99.90;;;;;;4972969;28;20089;-65
2024/01/07 03:38:48;;;;;;;8.73;5.07;;;1.50;99.90;;;;;;4994626;28;20034;-65
2024/01/07 03:41:18;;;;;;;10.63;5.00;;;1.50;99.90;;;;;;4992747;28;20117;-65
2024/01/07 03:43:49;;;;;;;9.10;4.78;;;1.50;99.90;;;;;;4992441;28;20053;-65
2024/01/07 03:46:16;;;;;;;9.80;5.00;;;1.50;99.90;;;;;;4988307;28;20042;-65
2024/01/07 03:48:44;;;;;;;8.95;4.88;;;1.40;99.90;;;;;;4994450;28;20052;-65
2024/01/07 03:51:11;;;;;;;7.57;4.40;;;1.40;99.90;;;;;;4990851;28;20053;-65
2024/01/07 03:53:37;;;;;;;8.27;4.97;;;1.50;99.90;;;;;;4988525;28;20483;-65
2024/01/07 03:56:05;;;;;;;6.78;3.58;;;1.50;99.90;;;;;;4991862;28;20034;-65
2024/01/07 03:58:32;;;;;;;9.40;4.57;;;1.50;99.90;;;;;;4993658;28;20034;-65
2024/01/07 04:00:59;;;;;;;8.77;4.45;;;1.60;99.90;;;;;;4992446;28;20038;-65
2024/01/07 04:03:26;;;;;;;7.15;4.65;;;1.60;99.90;;;;;;4990172;28;20039;-65
2024/01/07 04:05:53;;;;;;;7.85;4.50;;;1.60;99.90;;;;;;4974751;28;20119;-65
2024/01/07 04:08:19;;;;;;;7.70;4.05;;;1.50;99.90;;;;;;4988999;28;20042;-64
2024/01/07 04:10:46;;;;;;;8.60;4.45;;;1.50;99.90;;;;;;4991146;28;20043;-64
2024/01/07 04:13:13;;;;;;;7.47;3.92;;;1.50;99.90;;;;;;4992440;28;20050;-65
2024/01/07 04:15:40;;;;;;;8.40;4.63;;;1.50;99.90;;;;;;4993770;28;20042;-65
2024/01/07 04:18:07;;;;;;;8.27;4.63;;;1.50;99.90;;;;;;4989326;28;20100;-65
2024/01/07 04:20:34;;;;;;;6.15;3.58;;;1.50;99.90;;;;;;4993558;28;20210;-65
2024/01/07 04:23:01;;;;;;;7.78;4.32;;;1.50;99.90;;;;;;4992219;28;20050;-65
2024/01/07 04:25:27;;;;;;;5.43;3.28;;;1.40;99.90;;;;;;4991267;28;20038;-65
2024/01/07 04:27:54;;;;;;;8.90;4.10;;;1.40;99.90;;;;;;4991853;28;20530;-64
2024/01/07 04:30:21;;;;;;;6.32;3.75;;;1.40;99.90;;;;;;4992971;28;20144;-64
2024/01/07 04:32:48;;;;;;;7.68;4.45;;;1.50;99.90;;;;;;4992723;28;20511;-65
2024/01/07 04:35:15;;;;;;;6.00;3.58;;;1.50;99.90;;;;;;4992970;28;20038;-65
2024/01/07 04:37:41;;;;;;;8.15;4.63;;;1.50;99.90;;;;;;4992654;28;20105;-65
2024/01/07 04:40:09;;;;;;;8.05;4.68;;;1.50;99.90;;;;;;4973634;28;20043;-65
2024/01/07 04:42:36;;;;;;;8.18;4.22;;;1.50;99.90;;;;;;4992790;28;20057;-65
2024/01/07 04:45:04;;;;;;;9.50;4.63;;;1.60;99.90;;;;;;4991719;28;20035;-65
2024/01/07 04:47:35;;;;;;;11.18;5.47;;;1.60;99.90;;;;;;4993233;28;20052;-65
2024/01/07 04:50:03;;;;;;;9.00;4.90;;;1.60;99.90;;;;;;4991745;28;20042;-65
2024/01/07 04:52:30;;;;;;;11.73;5.40;;;1.60;99.90;;;;;;4990446;28;20097;-65
2024/01/07 04:54:57;;;;;;;9.88;5.35;;;1.60;99.90;;;;;;4987435;28;20117;-64
2024/01/07 04:57:24;;;;;;;12.23;5.05;;;1.60;99.90;;;;;;4992672;28;20113;-64
2024/01/07 04:59:52;;;;;;;11.55;6.05;;;1.60;99.90;;;;;;4992399;28;20034;-64
2024/01/07 05:02:19;;;;;;;11.65;5.80;;;1.50;99.90;;;;;;4992411;28;20042;-64
2024/01/07 05:04:45;;;;;;;13.40;4.97;;;1.50;99.90;;;;;;4988431;28;20041;-64
2024/01/07 05:07:12;;;;;;;9.13;4.88;;;1.50;99.90;;;;;;4987441;28;20105;-64
2024/01/07 05:09:39;;;;;;;8.60;4.65;;;1.50;99.90;;;;;;4991227;28;20113;-64
2024/01/07 05:12:06;;;;;;;7.97;4.63;;;1.50;99.90;;;;;;4991241;28;20050;-65
2024/01/07 05:14:33;;;;;;;7.57;4.03;;;1.50;99.90;;;;;;4992426;28;20042;-65
2024/01/07 05:17:00;;;;;;;8.32;4.05;;;1.50;99.90;;;;;;4992643;28;20124;-65
2024/01/07 05:19:27;;;;;;;6.63;4.18;;;1.60;99.90;;;;;;4991150;28;20043;-65
2024/01/07 05:21:54;;;;;;;8.40;4.65;;;1.50;99.90;;;;;;4992161;28;20039;-64
2024/01/07 05:24:21;;;;;;;8.35;4.55;;;1.60;99.90;;;;;;4989439;28;20058;-65
2024/01/07 05:26:47;;;;;;;9.60;5.53;;;1.50;99.90;;;;;;4992488;28;20092;-64
2024/01/07 05:29:14;;;;;;;7.80;4.70;;;1.50;99.90;;;;;;4990006;28;20325;-64
2024/01/07 05:31:41;;;;;;;5.47;3.00;;;1.50;99.90;;;;;;4987577;28;20034;-64
2024/01/07 05:34:08;;;;;;;9.00;4.47;;;1.50;99.90;;;;;;4990328;28;20121;-64
2024/01/07 05:36:35;;;;;;;7.43;3.95;;;1.50;99.90;;;;;;4989951;28;20038;-64
2024/01/07 05:39:03;;;;;;;8.55;4.22;;;1.50;99.90;;;;;;4991139;28;20510;-65
2024/01/07 05:41:29;;;;;;;9.93;4.10;;;1.50;99.90;;;;;;4989924;28;20050;-65
2024/01/07 05:43:56;;;;;;;8.45;4.45;;;1.50;99.90;;;;;;4991764;28;20062;-65
2024/01/07 05:46:23;;;;;;;6.85;4.22;;;1.50;99.90;;;;;;4990803;28;20038;-65
2024/01/07 05:48:50;;;;;;;7.15;4.32;;;1.50;99.90;;;;;;4992046;28;20588;-65
2024/01/07 05:51:17;;;;;;;7.22;4.47;;;1.50;99.90;;;;;;4988640;28;20057;-65
2024/01/07 05:53:45;;;;;;;14.02;5.43;;;1.50;99.90;;;;;;4986072;28;20795;-64
2024/01/07 05:56:12;;;;;;;45.25;7.85;;;1.50;99.90;;;;;;4990419;28;20133;-64
2024/01/07 05:58:39;;;;;;;17.83;5.93;;;1.40;99.90;;;;;;4991629;28;20073;-64
2024/01/07 06:01:08;;;;;;;28.05;6.45;;;1.40;99.90;;;;;;4987644;28;20081;-64
2024/01/07 06:03:35;;;;;;;21.10;5.32;;;1.40;99.90;;;;;;4989120;28;20030;-65
2024/01/07 06:06:03;;;;;;;;;;;1.40;99.90;;;;;;4987916;28;20042;-65
2024/01/07 06:08:30;;;;;;;11.50;5.20;;;1.40;99.90;;;;;;4971136;28;20363;-65
2024/01/07 06:10:56;;;;;;;6.57;3.53;;;1.40;99.90;;;;;;4991266;28;20038;-64
2024/01/07 06:13:23;;;;;;;11.23;5.25;;;1.40;99.90;;;;;;4972549;28;20057;-64
2024/01/07 06:15:50;;;;;;;8.52;4.68;;;1.40;99.90;;;;;;4991529;28;20061;-64
2024/01/07 06:18:17;;;;;;;7.40;4.28;;;1.40;99.90;;;;;;4990274;28;20044;-64
2024/01/07 06:20:44;;;;;;;7.88;4.53;;;1.50;99.90;;;;;;4988416;28;20034;-64
2024/01/07 06:23:11;;;;;;;7.78;4.78;;;1.50;99.90;;;;;;4984965;28;20042;-64
2024/01/07 06:25:39;;;;;;;9.25;4.95;;;1.50;99.90;;;;;;4990444;28;20113;-64
2024/01/07 06:28:06;;;;;;;8.05;4.90;;;1.50;99.90;;;;;;4988574;28;20046;-64
2024/01/07 06:30:33;;;;;;;;;;;1.50;99.90;;;;;;4984957;28;20038;-64
2024/01/07 06:33:00;;;;;;;10.07;5.60;;;1.50;99.90;;;;;;4988955;28;20012;-64
2024/01/07 06:35:28;;;;;;;8.85;5.38;;;1.50;99.90;;;;;;4992798;28;20053;-64
2024/01/07 06:37:54;;;;;;;9.93;5.47;;;1.50;99.90;;;;;;4991022;28;20045;-64
2024/01/07 06:40:22;;;;;;;8.45;4.88;;;1.50;99.90;;;;;;4990940;28;20562;-64
2024/01/07 06:42:49;;;;;;;9.60;5.75;;;1.40;99.90;;;;;;4992450;28;20042;-64
2024/01/07 06:45:16;;;;;;;9.60;5.25;;;1.50;99.90;;;;;;4989802;28;20043;-64
2024/01/07 06:47:43;;;;;;;9.32;5.57;;;1.40;99.90;;;;;;4991586;28;20054;-64
2024/01/07 06:50:10;;;;;;;11.40;6.22;;;1.50;99.90;;;;;;4989787;28;20042;-64
2024/01/07 06:52:37;;;;;;;9.88;5.57;;;1.50;99.90;;;;;;4991129;28;20495;-64
2024/01/07 06:55:04;;;;;;;7.70;4.60;;;1.50;99.90;;;;;;4986465;28;20039;-64
2024/01/07 06:57:31;;;;;;;;;;;1.50;99.90;;;;;;4991363;28;20038;-64
2024/01/07 06:59:58;;;;;;;9.43;5.78;;;1.50;99.90;;;;;;4990357;28;20462;-64
2024/01/07 07:02:25;;;;;;;8.65;5.28;;;1.50;99.90;;;;;;4990652;28;20096;-64
2024/01/07 07:04:52;;;;;;;9.90;5.70;;;1.50;99.90;;;;;;4991935;28;20034;-65
2024/01/07 07:07:19;;;;;;;9.23;5.78;;;1.50;99.90;;;;;;4988435;28;20488;-65
2024/01/07 07:09:46;;;;;;;10.63;5.55;;;1.40;99.90;;;;;;4987602;28;20038;-65
2024/01/07 07:12:13;;;;;;;;;;;1.50;99.90;;;;;;4991141;28;20542;-64
2024/01/07 07:14:40;;;;;;;6.85;4.57;;;1.40;99.90;;;;;;4991472;28;19921;-64
2024/01/07 07:17:07;;;;;;;7.60;4.78;;;1.40;99.90;;;;;;4972224;28;20064;-65
2024/01/07 07:19:33;;;;;;;12.35;5.00;;;1.40;99.90;;;;;;4991250;28;20428;-65
2024/01/07 07:22:00;;;;;;;10.18;4.97;;;1.40;99.90;;;;;;4989583;28;20034;-64
2024/01/07 07:24:27;;;;;;;8.45;5.18;;;1.50;99.90;;;;;;4991053;28;20402;-64
2024/01/07 07:26:54;;;;;;;11.20;4.68;;;1.50;99.90;;;;;;4971581;28;20038;-64
2024/01/07 07:29:21;;;;;;;7.68;4.63;;;1.50;99.90;;;;;;4990316;28;20042;-64
2024/01/07 07:31:48;;;;;;;5.90;3.65;;;1.50;99.90;;;;;;4990502;28;20129;-64
2024/01/07 07:34:15;;;;;;;9.13;4.90;;;1.50;99.90;;;;;;4990737;28;20502;-64
2024/01/07 07:36:44;;;;;;;15.73;5.15;;;1.50;99.90;;;;;;4988205;28;20043;-64
2024/01/07 07:39:13;;;;;;;9.15;4.72;;;1.50;99.90;;;;;;4989531;28;20046;-65
2024/01/07 07:41:40;;;;;;;6.50;4.28;;;1.40;99.90;;;;;;4990700;28;20114;-64
2024/01/07 07:44:07;;;;;;;7.00;4.70;;;1.50;99.90;;;;;;4975528;28;20692;-64
2024/01/07 07:46:34;;;;;;;6.70;4.32;;;1.40;99.90;;;;;;4989566;28;20045;-64
2024/01/07 07:49:01;;;;;;;6.07;4.10;;;1.40;99.90;;;;;;4990872;28;20030;-64
2024/01/07 07:51:28;;;;;;;;;;;1.40;99.90;;;;;;4988685;28;20046;-64
2024/01/07 07:53:55;;;;;;;5.65;4.13;;;1.40;99.90;;;;;;4988047;28;19921;-64
2024/01/07 07:56:22;;;;;;;8.10;4.90;;;1.50;99.90;;;;;;4959431;28;21811;-64
2024/01/07 07:58:49;;;;;;;6.68;4.43;;;1.50;99.90;;;;;;4992782;28;20046;-64
2024/01/07 08:01:18;;;;;;;6.03;3.80;;;1.50;99.90;;;;;;4993451;28;20034;-64
2024/01/07 08:03:45;;;;;;;9.02;4.47;;;1.50;99.90;;;;;;4993913;28;20418;-64
2024/01/07 08:06:12;;;;;;;8.90;4.55;;;1.50;99.90;;;;;;4991719;28;20420;-64
2024/01/07 08:08:39;;;;;;;6.40;4.35;;;1.50;99.90;;;;;;4992438;28;20038;-64
2024/01/07 08:11:08;;;;;;;8.80;4.72;;;1.50;99.90;;;;;;4993053;28;20467;-65
2024/01/07 08:13:37;;;;;;;8.75;4.45;;;1.60;99.90;;;;;;4989134;28;20495;-65
2024/01/07 08:16:05;;;;;;;7.38;4.28;;;1.60;99.90;;;;;;4991504;28;20756;-64
2024/01/07 08:18:32;;;;;;;9.77;4.68;;;1.60;99.90;;;;;;4990126;28;20045;-64
2024/01/07 08:21:00;;;;;;;6.18;3.95;;;1.60;99.90;;;;;;4990397;28;20062;-64
2024/01/07 08:23:27;;;;;;;8.80;4.07;;;1.50;99.90;;;;;;4992979;28;20088;-64
2024/01/07 08:25:54;;;;;;;6.75;3.75;;;1.50;99.90;;;;;;4973428;28;20034;-65
2024/01/07 08:28:21;;;;;;;8.57;4.32;;;1.50;99.90;;;;;;4992703;28;20046;-65
2024/01/07 08:30:49;;;;;;;6.00;4.07;;;1.50;99.90;;;;;;4991610;28;20129;-65
2024/01/07 08:33:16;;;;;;;9.35;3.80;;;1.50;99.90;;;;;;4990415;28;20038;-64
2024/01/07 08:35:43;;;;;;;6.80;3.95;;;1.50;99.90;;;;;;4990305;28;20509;-65
2024/01/07 08:38:10;;;;;;;5.82;3.83;;;1.50;99.90;;;;;;4992554;28;20125;-65
2024/01/07 08:40:37;;;;;;;7.10;4.05;;;1.50;99.90;;;;;;4992824;28;20487;-64
2024/01/07 08:43:04;;;;;;;5.28;3.72;;;1.50;99.90;;;;;;4990912;28;20488;-64
2024/01/07 08:45:31;;;;;;;6.93;4.35;;;1.50;99.90;;;;;;4992615;28;20041;-64
2024/01/07 08:47:58;;;;;;;5.65;3.78;;;1.60;99.90;;;;;;4989795;28;20042;-64
2024/01/07 08:50:25;;;;;;;6.40;3.95;;;1.60;99.90;;;;;;4992267;28;20042;-65
2024/01/07 08:52:52;;;;;;;5.22;3.67;;;1.60;99.90;;;;;;4986230;28;20049;-64
2024/01/07 08:55:19;;;;;;;6.72;4.22;;;1.60;99.90;;;;;;4987232;28;20053;-64
2024/01/07 08:57:48;;;;;;;47.70;6.15;;;1.60;99.90;;;;;;4992926;28;20051;-64
2024/01/07 09:00:16;;;;;;;7.15;4.20;;;1.70;99.90;;;;;;4992083;28;20085;-64
2024/01/07 09:02:43;;;;;;;6.15;4.30;;;1.70;99.90;;;;;;4990816;28;20078;-64
2024/01/07 09:05:12;;;;;;;8.88;3.78;;;1.70;99.90;;;;;;4989376;28;20093;-64
2024/01/07 09:07:39;;;;;;;11.52;4.05;;;1.70;99.90;;;;;;4992433;28;20070;-64
2024/01/07 09:10:10;;;;;;;7.75;4.15;;;1.70;99.90;;;;;;4989595;28;20537;-64
2024/01/07 09:12:38;;;;;;;7.85;4.18;;;1.70;99.90;;;;;;4985964;28;20065;-64
2024/01/07 09:15:08;;;;;;;8.23;4.18;;;1.70;99.90;;;;;;4985967;28;20069;-64
2024/01/07 09:17:38;;;;;;;6.55;4.35;;;1.70;99.90;;;;;;4985665;28;20034;-64
2024/01/07 09:20:08;;;;;;;7.40;4.30;;;1.70;99.90;;;;;;4990610;28;20049;-64
2024/01/07 09:22:36;;;;;;;10.45;4.65;;;1.70;99.90;;;;;;4987231;28;20403;-64
2024/01/07 09:25:03;;;;;;;8.30;4.10;;;1.80;99.90;;;;;;4982163;28;20050;-64
2024/01/07 09:27:31;;;;;;;8.75;4.47;;;1.70;99.90;;;;;;4991766;28;20121;-64
2024/01/07 09:29:58;;;;;;;6.25;4.03;;;1.80;99.90;;;;;;4989960;28;20121;-64
2024/01/07 09:32:25;;;;;;;5.70;4.15;;;1.80;99.90;;;;;;4990066;28;20539;-64
2024/01/07 09:34:53;;;;;;;5.93;3.85;;;1.90;99.90;;;;;;4985825;28;20053;-64
2024/01/07 09:37:20;;;;;;;9.75;5.13;;;1.90;99.90;;;;;;4991611;28;20046;-64
2024/01/07 09:39:47;;;;;;;14.98;4.88;;;1.80;99.90;;;;;;4985428;28;20038;-65
2024/01/07 09:42:16;;;;;;;10.90;5.38;;;1.90;99.90;;;;;;4986783;28;20041;-65
2024/01/07 09:44:43;;;;;;;8.20;5.10;;;1.90;99.90;;;;;;4991182;28;20050;-64
2024/01/07 09:47:12;;;;;;;10.07;4.90;;;1.90;99.90;;;;;;4986817;28;20041;-64
2024/01/07 09:49:39;;;;;;;8.90;4.20;;;1.90;99.90;;;;;;4989288;28;20038;-64
2024/01/07 09:52:08;;;;;;;7.18;4.22;;;1.90;99.90;;;;;;4988104;28;20042;-64
2024/01/07 09:54:38;;;;;;;6.82;3.53;;;1.90;99.90;;;;;;4982540;28;20040;-64
2024/01/07 09:57:10;;;;;;;6.18;3.42;;;1.90;99.90;;;;;;4990355;28;20046;-64
2024/01/07 09:59:37;;;;;;;5.45;3.17;;;1.90;99.90;;;;;;4988854;28;20043;-64
2024/01/07 10:02:04;;;;;;;7.45;3.97;;;1.90;99.90;;;;;;4990054;28;20537;-64
2024/01/07 10:04:31;;;;;;;5.68;3.08;;;1.90;99.90;;;;;;4991272;28;20042;-64
2024/01/07 10:06:58;;;;;;;;;;;1.90;99.90;;;;;;4986900;28;20046;-65
2024/01/07 10:09:30;;;;;;;5.07;3.20;;;2.00;99.90;;;;;;4972041;28;19988;-64
2024/01/07 10:11:56;;;;;;;9.38;3.50;;;2.00;99.90;;;;;;4993180;28;20084;-64
2024/01/07 10:14:25;;;;;;;8.18;3.50;;;2.00;99.90;;;;;;4991158;28;20514;-64
2024/01/07 10:16:53;;;;;;;6.78;4.10;;;2.00;99.90;;;;;;4991113;28;20039;-64
2024/01/07 10:19:21;;;;;;;5.15;3.10;;;2.00;99.90;;;;;;4991425;28;20038;-65
2024/01/07 10:22:05;;;;;;;6.60;3.33;;;2.10;99.90;;;;;;4990704;28;21093;-64
2024/01/07 10:24:39;;;;;;;7.50;3.25;;;2.00;99.90;;;;;;4988327;28;21125;-64
2024/01/07 10:27:09;;;;;;;8.18;3.70;;;2.00;99.90;;;;;;4987673;28;20035;-64
2024/01/07 10:29:36;;;;;;;7.47;3.65;;;2.10;99.90;;;;;;4987289;28;20061;-64
2024/01/07 10:32:05;;;;;;;6.95;3.40;;;2.00;99.90;;;;;;4990467;28;20052;-64
2024/01/07 10:34:33;;;;;;;6.32;3.28;;;2.00;99.90;;;;;;4988236;28;20034;-65
2024/01/07 10:37:02;;;;;;;5.65;3.40;;;2.10;99.90;;;;;;4986659;28;20070;-65
2024/01/07 10:39:30;;;;;;;5.65;3.28;;;2.00;99.90;;;;;;4990381;28;20201;-65
2024/01/07 10:41:57;;;;;;;4.95;2.92;;;2.00;99.90;;;;;;4986738;28;20600;-64
2024/01/07 10:44:28;;;;;;;;;;;2.00;99.90;;;;;;4988902;28;20518;-64
2024/01/07 10:46:56;;;;;;;5.10;3.25;;;2.10;99.90;;;;;;4989896;28;19921;-64
2024/01/07 10:49:26;;;;;;;;;;;2.00;99.90;;;;;;4989970;28;20045;-64
2024/01/07 10:52:07;;;;;;;5.80;3.47;;;2.00;99.90;;;;;;4990651;28;19922;-64
2024/01/07 10:54:36;;;;;;;6.85;3.72;;;2.00;99.90;;;;;;4982160;28;20142;-65
2024/01/07 10:57:35;;;;;;;6.43;3.60;;;2.00;99.90;;;;;;4987271;28;20061;-65
2024/01/07 11:00:08;;;;;;;6.13;2.97;;;1.90;99.90;;;;;;4986837;28;20057;-65
2024/01/07 11:02:51;;;;;;;4.43;3.03;;;1.90;99.90;;;;;;4969928;28;20058;-65
2024/01/07 11:05:26;;;;;;;5.65;3.25;;;1.90;99.90;;;;;;4988089;28;20050;-65
2024/01/07 11:08:11;;;;;;;6.63;3.03;;;2.00;99.90;;;;;;4988463;28;20046;-65
2024/01/07 11:10:50;;;;;;;6.03;3.45;;;2.00;99.90;;;;;;4985776;28;20043;-65
2024/01/07 11:13:35;;;;;;;6.75;3.60;;;2.00;99.90;;;;;;4990606;28;20038;-65
2024/01/07 11:16:03;;;;;;;6.53;3.42;;;2.10;99.90;;;;;;4991408;28;20100;-65
2024/01/07 11:18:33;;;;;;;5.00;3.45;;;2.10;99.90;;;;;;4993384;28;20042;-66
2024/01/07 11:21:01;;;;;;;5.97;3.63;;;2.10;99.90;;;;;;4994421;28;20395;-65
2024/01/07 11:23:29;;;;;;;4.85;3.50;;;2.20;99.90;;;;;;4991793;28;20271;-65
2024/01/07 11:25:57;;;;;;;7.55;3.53;;;2.10;99.90;;;;;;4994545;28;20043;-65
2024/01/07 11:28:46;;;;;;;6.72;3.50;;;2.10;99.90;;;;;;4994882;28;20031;-65
2024/01/07 11:31:15;;;;;;;5.18;2.78;;;2.20;99.90;;;;;;4995493;28;20043;-65
2024/01/07 11:33:46;;;;;;;5.00;3.00;;;2.20;99.90;;;;;;4994302;28;20058;-65
2024/01/07 11:36:15;;;;;;;6.07;3.65;;;2.30;99.90;;;;;;4992085;28;20105;-65
2024/01/07 11:38:49;;;;;;;5.03;3.17;;;2.30;99.90;;;;;;4994161;28;20042;-65
2024/01/07 11:41:21;;;;;;;6.32;3.42;;;2.30;99.90;;;;;;4992081;28;20470;-65
2024/01/07 11:43:54;;;;;;;4.88;2.88;;;2.30;99.90;;;;;;4993860;28;20039;-65
2024/01/07 11:46:22;;;;;;;5.40;2.47;;;2.30;99.90;;;;;;4994018;28;20487;-64
2024/01/07 11:48:52;;;;;;;6.20;2.78;;;2.30;99.90;;;;;;4989628;28;20084;-64
2024/01/07 11:51:19;;;;;;;4.95;2.97;;;2.30;99.90;;;;;;4993716;28;20050;-64
2024/01/07 11:53:48;;;;;;;3.65;2.30;;;2.30;99.90;;;;;;4993505;28;20059;-64
2024/01/07 11:56:14;;;;;;;5.93;2.40;;;2.30;99.90;;;;;;4989059;28;20385;-64
2024/01/07 11:58:42;;;;;;;6.93;2.22;;;2.40;99.90;;;;;;4989853;28;20038;-64
2024/01/07 12:01:08;;;;;;;;;;;2.30;99.90;;;;;;4994090;28;20043;-64
2024/01/07 12:03:35;;;;;;;4.63;2.60;;;2.30;99.90;;;;;;4989998;28;19921;-64
2024/01/07 12:06:04;;;;;;;8.20;2.83;;;2.20;99.90;;;;;;4994035;28;20045;-64
2024/01/07 12:08:31;;;;;;;5.50;3.22;;;2.20;99.90;;;;;;4973285;28;20047;-64
2024/01/07 12:10:59;;;;;;;7.35;3.95;;;2.20;99.90;;;;;;4993435;28;20498;-64
2024/01/07 12:13:26;;;;;;;8.18;4.03;;;2.20;99.90;;;;;;4993536;28;20383;-65
2024/01/07 12:15:54;;;;;;;7.88;4.95;;;2.20;99.90;;;;;;4989882;28;20035;-65
2024/01/07 12:18:21;;;;;;;9.15;4.68;;;2.20;99.90;;;;;;4994191;28;20046;-64
2024/01/07 12:20:54;;;;;;;;;;;2.20;99.90;;;;;;4993898;28;20104;-65
2024/01/07 12:23:27;;;;;;;8.10;4.15;;;2.20;99.90;;;;;;4998967;28;19932;-65
2024/01/07 12:25:55;;;;;;;7.60;3.47;;;2.20;99.90;;;;;;4989002;28;20046;-64
2024/01/07 12:28:22;;;;;;;5.10;3.42;;;2.10;99.90;;;;;;4993030;28;20057;-64
2024/01/07 12:30:49;;;;;;;5.15;3.28;;;2.10;99.90;;;;;;4996833;28;20050;-64
2024/01/07 12:33:20;;;;;;;5.22;3.10;;;2.10;99.90;;;;;;4994068;28;20042;-64
2024/01/07 12:35:47;;;;;;;5.47;2.95;;;2.10;99.90;;;;;;4992411;28;20050;-64
2024/01/07 12:38:14;;;;;;;;;;;2.10;99.90;;;;;;5002371;28;20479;-64
2024/01/07 12:40:41;;;;;;;7.80;3.50;;;2.10;99.90;;;;;;4988912;28;19961;-64
2024/01/07 12:43:08;;;;;;;5.97;3.50;;;2.10;99.90;;;;;;4993225;28;20060;-64
2024/01/07 12:45:35;;;;;;;8.20;3.65;;;2.10;99.90;;;;;;4992421;28;20045;-65
2024/01/07 12:48:02;;;;;;;10.60;3.55;;;2.10;99.90;;;;;;4992937;28;20387;-64
2024/01/07 12:50:31;;;;;;;6.05;3.80;;;2.00;99.90;;;;;;4993405;28;20148;-64
2024/01/07 12:52:58;;;;;;;6.28;3.63;;;1.90;99.90;;;;;;4989588;28;20053;-64
2024/01/07 12:55:26;;;;;;;7.38;4.68;;;1.80;99.90;;;;;;4993079;28;20046;-64
2024/01/07 12:57:54;;;;;;;6.88;4.43;;;1.70;99.90;;;;;;4992540;28;20117;-65
2024/01/07 13:00:21;;;;;;;6.38;3.85;;;1.80;99.90;;;;;;4992773;28;20034;-64
2024/01/07 13:02:49;;;;;;;9.75;5.35;;;1.70;99.90;;;;;;4987823;28;20039;-65
2024/01/07 13:05:16;;;;;;;11.63;4.70;;;1.80;99.90;;;;;;4984695;28;20034;-65